sensor_id;sensor_type;location;lat;lon;timestamp;P1;durP1;ratioP1;P2;durP2;ratioP2
52508;SDS011;38420;53.150;6.370;2023-02-28T00:00:20;14.45;;;4.57;;
52508;SDS011;38420;53.150;6.370;2023-02-28T00:02:46;9.45;;;4.68;;
52508;SDS011;38420;53.150;6.370;2023-02-28T00:05:13;9.30;;;3.65;;
52508;SDS011;38420;53.150;6.370;2023-02-28T00:07:41;13.75;;;4.80;;
52508;SDS011;38420;53.150;6.370;2023-02-28T00:10:08;12.15;;;5.32;;
52508;SDS011;38420;53.150;6.370;2023-02-28T00:12:35;13.05;;;5.18;;
52508;SDS011;38420;53.150;6.370;2023-02-28T00:15:02;15.45;;;5.55;;
52508;SDS011;38420;53.150;6.370;2023-02-28T00:17:30;12.52;;;4.82;;
52508;SDS011;38420;53.150;6.370;2023-02-28T00:19:56;11.38;;;4.90;;
52508;SDS011;38420;53.150;6.370;2023-02-28T00:22:26;13.00;;;5.57;;
52508;SDS011;38420;53.150;6.370;2023-02-28T00:24:52;12.30;;;5.32;;
52508;SDS011;38420;53.150;6.370;2023-02-28T00:27:18;15.18;;;6.32;;
52508;SDS011;38420;53.150;6.370;2023-02-28T00:29:43;12.82;;;5.68;;
52508;SDS011;38420;53.150;6.370;2023-02-28T00:32:11;13.55;;;5.65;;
52508;SDS011;38420;53.150;6.370;2023-02-28T00:34:36;13.13;;;6.35;;
52508;SDS011;38420;53.150;6.370;2023-02-28T00:37:03;14.57;;;6.20;;
52508;SDS011;38420;53.150;6.370;2023-02-28T00:39:36;12.65;;;5.90;;
52508;SDS011;38420;53.150;6.370;2023-02-28T00:42:02;12.93;;;5.82;;
52508;SDS011;38420;53.150;6.370;2023-02-28T00:44:29;13.38;;;6.80;;
52508;SDS011;38420;53.150;6.370;2023-02-28T00:46:55;12.63;;;6.57;;
52508;SDS011;38420;53.150;6.370;2023-02-28T00:49:21;14.07;;;5.45;;
52508;SDS011;38420;53.150;6.370;2023-02-28T00:51:48;14.00;;;6.03;;
52508;SDS011;38420;53.150;6.370;2023-02-28T00:54:14;15.65;;;6.28;;
52508;SDS011;38420;53.150;6.370;2023-02-28T00:56:40;14.38;;;5.53;;
52508;SDS011;38420;53.150;6.370;2023-02-28T00:59:05;16.65;;;6.05;;
52508;SDS011;38420;53.150;6.370;2023-02-28T01:01:31;15.40;;;7.15;;
52508;SDS011;38420;53.150;6.370;2023-02-28T01:03:57;17.60;;;5.90;;
52508;SDS011;38420;53.150;6.370;2023-02-28T01:06:22;13.98;;;6.25;;
52508;SDS011;38420;53.150;6.370;2023-02-28T01:08:48;18.50;;;6.47;;
52508;SDS011;38420;53.150;6.370;2023-02-28T01:11:15;14.05;;;6.47;;
52508;SDS011;38420;53.150;6.370;2023-02-28T01:13:43;16.65;;;6.72;;
52508;SDS011;38420;53.150;6.370;2023-02-28T01:16:09;16.60;;;6.60;;
52508;SDS011;38420;53.150;6.370;2023-02-28T01:18:36;17.92;;;7.00;;
52508;SDS011;38420;53.150;6.370;2023-02-28T01:21:05;16.42;;;7.05;;
52508;SDS011;38420;53.150;6.370;2023-02-28T01:23:32;14.77;;;6.60;;
52508;SDS011;38420;53.150;6.370;2023-02-28T01:26:03;18.95;;;6.78;;
52508;SDS011;38420;53.150;6.370;2023-02-28T01:28:30;13.07;;;6.63;;
52508;SDS011;38420;53.150;6.370;2023-02-28T01:30:56;16.77;;;5.97;;
52508;SDS011;38420;53.150;6.370;2023-02-28T01:33:21;10.35;;;5.43;;
52508;SDS011;38420;53.150;6.370;2023-02-28T01:35:47;17.65;;;5.72;;
52508;SDS011;38420;53.150;6.370;2023-02-28T01:38:12;15.52;;;6.55;;
52508;SDS011;38420;53.150;6.370;2023-02-28T01:40:39;20.63;;;6.05;;
52508;SDS011;38420;53.150;6.370;2023-02-28T01:43:07;13.23;;;6.00;;
52508;SDS011;38420;53.150;6.370;2023-02-28T01:45:47;14.27;;;6.70;;
52508;SDS011;38420;53.150;6.370;2023-02-28T01:48:12;13.20;;;5.80;;
52508;SDS011;38420;53.150;6.370;2023-02-28T01:50:39;13.48;;;6.40;;
52508;SDS011;38420;53.150;6.370;2023-02-28T01:53:09;14.05;;;5.90;;
52508;SDS011;38420;53.150;6.370;2023-02-28T01:55:39;17.63;;;6.45;;
52508;SDS011;38420;53.150;6.370;2023-02-28T01:58:08;14.30;;;5.90;;
52508;SDS011;38420;53.150;6.370;2023-02-28T02:00:34;12.45;;;5.93;;
52508;SDS011;38420;53.150;6.370;2023-02-28T02:03:03;13.93;;;5.97;;
52508;SDS011;38420;53.150;6.370;2023-02-28T02:05:38;11.73;;;5.75;;
52508;SDS011;38420;53.150;6.370;2023-02-28T02:08:06;13.60;;;5.25;;
52508;SDS011;38420;53.150;6.370;2023-02-28T02:10:58;11.80;;;5.88;;
52508;SDS011;38420;53.150;6.370;2023-02-28T02:16:18;12.65;;;5.60;;
52508;SDS011;38420;53.150;6.370;2023-02-28T02:22:01;13.48;;;5.60;;
52508;SDS011;38420;53.150;6.370;2023-02-28T02:25:19;12.68;;;5.43;;
52508;SDS011;38420;53.150;6.370;2023-02-28T02:27:31;12.07;;;5.30;;
52508;SDS011;38420;53.150;6.370;2023-02-28T02:33:09;13.23;;;5.38;;
52508;SDS011;38420;53.150;6.370;2023-02-28T02:36:02;18.23;;;5.13;;
52508;SDS011;38420;53.150;6.370;2023-02-28T02:38:35;12.07;;;5.72;;
52508;SDS011;38420;53.150;6.370;2023-02-28T02:41:34;9.50;;;4.82;;
52508;SDS011;38420;53.150;6.370;2023-02-28T02:44:20;13.57;;;6.05;;
52508;SDS011;38420;53.150;6.370;2023-02-28T02:46:51;14.18;;;5.88;;
52508;SDS011;38420;53.150;6.370;2023-02-28T02:49:26;14.15;;;5.70;;
52508;SDS011;38420;53.150;6.370;2023-02-28T02:51:56;13.52;;;5.55;;
52508;SDS011;38420;53.150;6.370;2023-02-28T02:54:30;13.55;;;5.65;;
52508;SDS011;38420;53.150;6.370;2023-02-28T02:57:01;13.35;;;5.47;;
52508;SDS011;38420;53.150;6.370;2023-02-28T02:59:31;13.68;;;5.28;;
52508;SDS011;38420;53.150;6.370;2023-02-28T03:02:00;11.90;;;5.90;;
52508;SDS011;38420;53.150;6.370;2023-02-28T03:04:30;9.87;;;5.73;;
52508;SDS011;38420;53.150;6.370;2023-02-28T03:06:59;14.10;;;5.32;;
52508;SDS011;38420;53.150;6.370;2023-02-28T03:09:25;14.60;;;5.95;;
52508;SDS011;38420;53.150;6.370;2023-02-28T03:11:52;16.65;;;6.20;;
52508;SDS011;38420;53.150;6.370;2023-02-28T03:19:52;16.15;;;6.85;;
52508;SDS011;38420;53.150;6.370;2023-02-28T03:25:39;11.73;;;5.80;;
52508;SDS011;38420;53.150;6.370;2023-02-28T03:28:12;13.38;;;6.65;;
52508;SDS011;38420;53.150;6.370;2023-02-28T03:33:58;16.30;;;7.32;;
52508;SDS011;38420;53.150;6.370;2023-02-28T03:36:47;18.40;;;9.10;;
52508;SDS011;38420;53.150;6.370;2023-02-28T03:41:53;21.42;;;9.23;;
52508;SDS011;38420;53.150;6.370;2023-02-28T03:44:26;20.80;;;9.15;;
52508;SDS011;38420;53.150;6.370;2023-02-28T03:47:00;17.63;;;9.52;;
52508;SDS011;38420;53.150;6.370;2023-02-28T03:49:38;19.30;;;9.75;;
52508;SDS011;38420;53.150;6.370;2023-02-28T03:52:10;19.00;;;9.67;;
52508;SDS011;38420;53.150;6.370;2023-02-28T03:54:39;16.25;;;9.85;;
52508;SDS011;38420;53.150;6.370;2023-02-28T03:59:49;24.70;;;13.15;;
52508;SDS011;38420;53.150;6.370;2023-02-28T04:02:24;25.25;;;13.93;;
52508;SDS011;38420;53.150;6.370;2023-02-28T04:04:50;25.17;;;14.73;;
52508;SDS011;38420;53.150;6.370;2023-02-28T04:07:16;28.10;;;15.95;;
52508;SDS011;38420;53.150;6.370;2023-02-28T04:09:42;28.90;;;16.33;;
52508;SDS011;38420;53.150;6.370;2023-02-28T04:12:08;28.67;;;14.43;;
52508;SDS011;38420;53.150;6.370;2023-02-28T04:14:34;24.80;;;15.00;;
52508;SDS011;38420;53.150;6.370;2023-02-28T04:16:59;26.67;;;14.23;;
52508;SDS011;38420;53.150;6.370;2023-02-28T04:19:25;30.23;;;16.08;;
52508;SDS011;38420;53.150;6.370;2023-02-28T04:21:51;29.15;;;15.23;;
52508;SDS011;38420;53.150;6.370;2023-02-28T04:24:21;27.23;;;15.63;;
52508;SDS011;38420;53.150;6.370;2023-02-28T04:26:48;23.50;;;14.20;;
52508;SDS011;38420;53.150;6.370;2023-02-28T04:29:23;21.80;;;13.73;;
52508;SDS011;38420;53.150;6.370;2023-02-28T04:31:58;19.73;;;13.20;;
52508;SDS011;38420;53.150;6.370;2023-02-28T04:34:25;21.60;;;12.93;;
52508;SDS011;38420;53.150;6.370;2023-02-28T04:36:52;18.90;;;12.43;;
52508;SDS011;38420;53.150;6.370;2023-02-28T04:39:21;21.77;;;12.98;;
52508;SDS011;38420;53.150;6.370;2023-02-28T04:41:48;19.38;;;11.15;;
52508;SDS011;38420;53.150;6.370;2023-02-28T04:44:14;18.70;;;10.50;;
52508;SDS011;38420;53.150;6.370;2023-02-28T04:46:40;17.15;;;10.45;;
52508;SDS011;38420;53.150;6.370;2023-02-28T04:49:06;19.50;;;10.73;;
52508;SDS011;38420;53.150;6.370;2023-02-28T04:51:31;21.23;;;10.63;;
52508;SDS011;38420;53.150;6.370;2023-02-28T04:53:57;20.05;;;11.13;;
52508;SDS011;38420;53.150;6.370;2023-02-28T04:56:22;21.30;;;10.63;;
52508;SDS011;38420;53.150;6.370;2023-02-28T04:58:48;21.58;;;11.43;;
52508;SDS011;38420;53.150;6.370;2023-02-28T05:01:19;19.77;;;10.80;;
52508;SDS011;38420;53.150;6.370;2023-02-28T05:03:47;20.05;;;10.88;;
52508;SDS011;38420;53.150;6.370;2023-02-28T05:06:14;21.95;;;11.35;;
52508;SDS011;38420;53.150;6.370;2023-02-28T05:08:40;23.33;;;11.00;;
52508;SDS011;38420;53.150;6.370;2023-02-28T05:11:07;22.20;;;11.02;;
52508;SDS011;38420;53.150;6.370;2023-02-28T05:13:39;21.27;;;11.60;;
52508;SDS011;38420;53.150;6.370;2023-02-28T05:16:05;21.15;;;11.30;;
52508;SDS011;38420;53.150;6.370;2023-02-28T05:18:31;22.23;;;12.02;;
52508;SDS011;38420;53.150;6.370;2023-02-28T05:20:56;23.73;;;11.40;;
52508;SDS011;38420;53.150;6.370;2023-02-28T05:23:22;23.33;;;12.07;;
52508;SDS011;38420;53.150;6.370;2023-02-28T05:25:48;27.13;;;12.63;;
52508;SDS011;38420;53.150;6.370;2023-02-28T05:28:14;25.40;;;12.20;;
52508;SDS011;38420;53.150;6.370;2023-02-28T05:30:40;23.23;;;11.82;;
52508;SDS011;38420;53.150;6.370;2023-02-28T05:33:05;25.85;;;12.73;;
52508;SDS011;38420;53.150;6.370;2023-02-28T05:35:31;26.45;;;13.82;;
52508;SDS011;38420;53.150;6.370;2023-02-28T05:37:57;25.15;;;13.50;;
52508;SDS011;38420;53.150;6.370;2023-02-28T05:40:22;28.30;;;15.43;;
52508;SDS011;38420;53.150;6.370;2023-02-28T05:42:50;27.85;;;15.80;;
52508;SDS011;38420;53.150;6.370;2023-02-28T05:45:15;29.15;;;15.10;;
52508;SDS011;38420;53.150;6.370;2023-02-28T05:47:42;27.05;;;14.88;;
52508;SDS011;38420;53.150;6.370;2023-02-28T05:50:07;28.98;;;15.38;;
52508;SDS011;38420;53.150;6.370;2023-02-28T05:52:35;28.98;;;15.25;;
52508;SDS011;38420;53.150;6.370;2023-02-28T05:55:01;31.90;;;16.15;;
52508;SDS011;38420;53.150;6.370;2023-02-28T05:57:26;29.50;;;17.15;;
52508;SDS011;38420;53.150;6.370;2023-02-28T05:59:52;32.90;;;17.23;;
52508;SDS011;38420;53.150;6.370;2023-02-28T06:02:18;32.03;;;17.08;;
52508;SDS011;38420;53.150;6.370;2023-02-28T06:04:43;32.90;;;18.67;;
52508;SDS011;38420;53.150;6.370;2023-02-28T06:07:09;30.65;;;18.67;;
52508;SDS011;38420;53.150;6.370;2023-02-28T06:09:35;31.02;;;18.30;;
52508;SDS011;38420;53.150;6.370;2023-02-28T06:12:02;33.15;;;18.20;;
52508;SDS011;38420;53.150;6.370;2023-02-28T06:14:30;34.92;;;19.33;;
52508;SDS011;38420;53.150;6.370;2023-02-28T06:16:57;32.33;;;18.65;;
52508;SDS011;38420;53.150;6.370;2023-02-28T06:19:23;39.03;;;20.48;;
52508;SDS011;38420;53.150;6.370;2023-02-28T06:21:51;39.25;;;20.80;;
52508;SDS011;38420;53.150;6.370;2023-02-28T06:24:18;43.67;;;21.70;;
52508;SDS011;38420;53.150;6.370;2023-02-28T06:26:44;47.28;;;23.27;;
52508;SDS011;38420;53.150;6.370;2023-02-28T06:29:10;42.17;;;21.55;;
52508;SDS011;38420;53.150;6.370;2023-02-28T06:31:36;44.40;;;21.13;;
52508;SDS011;38420;53.150;6.370;2023-02-28T06:34:03;39.47;;;20.60;;
52508;SDS011;38420;53.150;6.370;2023-02-28T06:36:29;36.13;;;18.17;;
52508;SDS011;38420;53.150;6.370;2023-02-28T06:38:55;32.92;;;17.20;;
52508;SDS011;38420;53.150;6.370;2023-02-28T06:41:22;32.40;;;18.65;;
52508;SDS011;38420;53.150;6.370;2023-02-28T06:43:48;30.65;;;16.98;;
52508;SDS011;38420;53.150;6.370;2023-02-28T06:46:15;32.22;;;18.30;;
52508;SDS011;38420;53.150;6.370;2023-02-28T06:48:41;31.33;;;17.83;;
52508;SDS011;38420;53.150;6.370;2023-02-28T06:51:09;36.30;;;18.35;;
52508;SDS011;38420;53.150;6.370;2023-02-28T06:53:38;37.42;;;19.30;;
52508;SDS011;38420;53.150;6.370;2023-02-28T06:56:04;37.60;;;19.60;;
52508;SDS011;38420;53.150;6.370;2023-02-28T06:58:32;43.28;;;20.38;;
52508;SDS011;38420;53.150;6.370;2023-02-28T07:00:58;35.78;;;18.48;;
52508;SDS011;38420;53.150;6.370;2023-02-28T07:03:23;44.08;;;18.95;;
52508;SDS011;38420;53.150;6.370;2023-02-28T07:05:49;40.13;;;19.00;;
52508;SDS011;38420;53.150;6.370;2023-02-28T07:08:15;36.90;;;19.00;;
52508;SDS011;38420;53.150;6.370;2023-02-28T07:10:41;38.47;;;17.65;;
52508;SDS011;38420;53.150;6.370;2023-02-28T07:13:07;37.17;;;18.77;;
52508;SDS011;38420;53.150;6.370;2023-02-28T07:15:33;35.42;;;19.08;;
52508;SDS011;38420;53.150;6.370;2023-02-28T07:18:00;36.72;;;18.85;;
52508;SDS011;38420;53.150;6.370;2023-02-28T07:20:26;37.25;;;19.05;;
52508;SDS011;38420;53.150;6.370;2023-02-28T07:22:51;37.17;;;18.75;;
52508;SDS011;38420;53.150;6.370;2023-02-28T07:25:23;35.88;;;18.75;;
52508;SDS011;38420;53.150;6.370;2023-02-28T07:27:50;41.05;;;19.80;;
52508;SDS011;38420;53.150;6.370;2023-02-28T07:30:16;38.30;;;20.05;;
52508;SDS011;38420;53.150;6.370;2023-02-28T07:32:42;39.20;;;18.83;;
52508;SDS011;38420;53.150;6.370;2023-02-28T07:35:07;35.72;;;18.65;;
52508;SDS011;38420;53.150;6.370;2023-02-28T07:37:33;39.72;;;19.40;;
52508;SDS011;38420;53.150;6.370;2023-02-28T07:40:09;35.00;;;18.30;;
52508;SDS011;38420;53.150;6.370;2023-02-28T07:42:42;42.38;;;20.25;;
52508;SDS011;38420;53.150;6.370;2023-02-28T07:45:08;35.17;;;19.45;;
52508;SDS011;38420;53.150;6.370;2023-02-28T07:47:37;36.03;;;18.65;;
52508;SDS011;38420;53.150;6.370;2023-02-28T07:50:03;41.53;;;19.25;;
52508;SDS011;38420;53.150;6.370;2023-02-28T07:52:30;44.45;;;19.48;;
52508;SDS011;38420;53.150;6.370;2023-02-28T07:54:57;39.38;;;18.70;;
52508;SDS011;38420;53.150;6.370;2023-02-28T07:57:22;35.20;;;17.80;;
52508;SDS011;38420;53.150;6.370;2023-02-28T07:59:48;35.03;;;19.05;;
52508;SDS011;38420;53.150;6.370;2023-02-28T08:02:14;40.95;;;20.08;;
52508;SDS011;38420;53.150;6.370;2023-02-28T08:04:40;37.95;;;18.80;;
52508;SDS011;38420;53.150;6.370;2023-02-28T08:07:06;35.88;;;19.45;;
52508;SDS011;38420;53.150;6.370;2023-02-28T08:09:33;36.90;;;20.08;;
52508;SDS011;38420;53.150;6.370;2023-02-28T08:11:59;36.80;;;18.67;;
52508;SDS011;38420;53.150;6.370;2023-02-28T08:14:25;33.45;;;18.70;;
52508;SDS011;38420;53.150;6.370;2023-02-28T08:16:50;38.60;;;19.88;;
52508;SDS011;38420;53.150;6.370;2023-02-28T08:19:16;37.67;;;18.85;;
52508;SDS011;38420;53.150;6.370;2023-02-28T08:21:41;32.05;;;17.58;;
52508;SDS011;38420;53.150;6.370;2023-02-28T08:24:07;39.72;;;20.65;;
52508;SDS011;38420;53.150;6.370;2023-02-28T08:26:33;35.60;;;18.48;;
52508;SDS011;38420;53.150;6.370;2023-02-28T08:28:58;35.92;;;18.70;;
52508;SDS011;38420;53.150;6.370;2023-02-28T08:31:24;33.85;;;17.92;;
52508;SDS011;38420;53.150;6.370;2023-02-28T08:33:50;33.10;;;17.50;;
52508;SDS011;38420;53.150;6.370;2023-02-28T08:36:17;32.47;;;17.60;;
52508;SDS011;38420;53.150;6.370;2023-02-28T08:38:44;35.55;;;17.17;;
52508;SDS011;38420;53.150;6.370;2023-02-28T08:41:11;31.92;;;17.38;;
52508;SDS011;38420;53.150;6.370;2023-02-28T08:43:37;35.25;;;17.85;;
52508;SDS011;38420;53.150;6.370;2023-02-28T08:46:04;39.00;;;19.05;;
52508;SDS011;38420;53.150;6.370;2023-02-28T08:48:32;36.55;;;17.80;;
52508;SDS011;38420;53.150;6.370;2023-02-28T08:51:03;36.00;;;19.42;;
52508;SDS011;38420;53.150;6.370;2023-02-28T08:53:31;35.70;;;18.75;;
52508;SDS011;38420;53.150;6.370;2023-02-28T08:56:01;34.40;;;18.35;;
52508;SDS011;38420;53.150;6.370;2023-02-28T08:58:31;34.17;;;18.52;;
52508;SDS011;38420;53.150;6.370;2023-02-28T09:00:57;32.47;;;17.70;;
52508;SDS011;38420;53.150;6.370;2023-02-28T09:03:23;30.50;;;17.25;;
52508;SDS011;38420;53.150;6.370;2023-02-28T09:05:59;35.50;;;18.55;;
52508;SDS011;38420;53.150;6.370;2023-02-28T09:08:26;29.55;;;17.33;;
52508;SDS011;38420;53.150;6.370;2023-02-28T09:10:54;29.13;;;17.83;;
52508;SDS011;38420;53.150;6.370;2023-02-28T09:13:22;32.40;;;18.55;;
52508;SDS011;38420;53.150;6.370;2023-02-28T09:15:48;31.08;;;18.52;;
52508;SDS011;38420;53.150;6.370;2023-02-28T09:18:13;34.78;;;19.30;;
52508;SDS011;38420;53.150;6.370;2023-02-28T09:20:40;30.98;;;17.60;;
52508;SDS011;38420;53.150;6.370;2023-02-28T09:23:07;34.03;;;18.80;;
52508;SDS011;38420;53.150;6.370;2023-02-28T09:25:34;29.75;;;18.20;;
52508;SDS011;38420;53.150;6.370;2023-02-28T09:28:00;33.28;;;19.15;;
52508;SDS011;38420;53.150;6.370;2023-02-28T09:30:26;27.85;;;16.48;;
52508;SDS011;38420;53.150;6.370;2023-02-28T09:32:52;24.83;;;15.88;;
52508;SDS011;38420;53.150;6.370;2023-02-28T09:35:18;27.33;;;15.88;;
52508;SDS011;38420;53.150;6.370;2023-02-28T09:37:46;24.10;;;15.77;;
52508;SDS011;38420;53.150;6.370;2023-02-28T09:40:12;27.25;;;15.18;;
52508;SDS011;38420;53.150;6.370;2023-02-28T09:42:39;27.02;;;14.23;;
52508;SDS011;38420;53.150;6.370;2023-02-28T09:45:29;23.00;;;14.52;;
52508;SDS011;38420;53.150;6.370;2023-02-28T09:47:56;28.08;;;14.57;;
52508;SDS011;38420;53.150;6.370;2023-02-28T09:53:03;22.45;;;14.77;;
52508;SDS011;38420;53.150;6.370;2023-02-28T09:55:37;24.73;;;14.15;;
52508;SDS011;38420;53.150;6.370;2023-02-28T09:58:21;25.85;;;14.90;;
52508;SDS011;38420;53.150;6.370;2023-02-28T10:00:56;23.33;;;13.43;;
52508;SDS011;38420;53.150;6.370;2023-02-28T10:04:08;19.45;;;12.63;;
52508;SDS011;38420;53.150;6.370;2023-02-28T10:06:54;17.65;;;11.13;;
52508;SDS011;38420;53.150;6.370;2023-02-28T10:09:26;16.98;;;11.60;;
52508;SDS011;38420;53.150;6.370;2023-02-28T10:12:00;17.33;;;11.52;;
52508;SDS011;38420;53.150;6.370;2023-02-28T10:14:29;17.83;;;11.88;;
52508;SDS011;38420;53.150;6.370;2023-02-28T10:17:02;17.65;;;10.63;;
52508;SDS011;38420;53.150;6.370;2023-02-28T10:19:56;18.92;;;11.95;;
52508;SDS011;38420;53.150;6.370;2023-02-28T10:25:27;17.23;;;11.32;;
52508;SDS011;38420;53.150;6.370;2023-02-28T10:30:25;13.38;;;9.18;;
52508;SDS011;38420;53.150;6.370;2023-02-28T10:32:51;12.90;;;9.25;;
52508;SDS011;38420;53.150;6.370;2023-02-28T10:37:50;13.75;;;9.02;;
52508;SDS011;38420;53.150;6.370;2023-02-28T10:45:36;9.10;;;5.20;;
52508;SDS011;38420;53.150;6.370;2023-02-28T11:01:22;13.10;;;5.90;;
52508;SDS011;38420;53.150;6.370;2023-02-28T11:03:56;9.82;;;5.70;;
52508;SDS011;38420;53.150;6.370;2023-02-28T11:06:24;9.27;;;5.82;;
52508;SDS011;38420;53.150;6.370;2023-02-28T11:08:53;10.90;;;5.80;;
52508;SDS011;38420;53.150;6.370;2023-02-28T11:13:51;12.43;;;7.15;;
52508;SDS011;38420;53.150;6.370;2023-02-28T11:16:19;10.75;;;6.70;;
52508;SDS011;38420;53.150;6.370;2023-02-28T11:18:52;7.55;;;5.68;;
52508;SDS011;38420;53.150;6.370;2023-02-28T11:23:55;7.97;;;5.30;;
52508;SDS011;38420;53.150;6.370;2023-02-28T11:26:35;9.45;;;5.53;;
52508;SDS011;38420;53.150;6.370;2023-02-28T11:29:09;7.63;;;4.93;;
52508;SDS011;38420;53.150;6.370;2023-02-28T11:31:41;10.05;;;5.00;;
52508;SDS011;38420;53.150;6.370;2023-02-28T11:34:23;9.93;;;5.03;;
52508;SDS011;38420;53.150;6.370;2023-02-28T11:36:51;7.20;;;4.55;;
52508;SDS011;38420;53.150;6.370;2023-02-28T11:39:18;6.78;;;4.40;;
52508;SDS011;38420;53.150;6.370;2023-02-28T11:49:46;7.53;;;4.70;;
52508;SDS011;38420;53.150;6.370;2023-02-28T11:52:52;7.22;;;4.07;;
52508;SDS011;38420;53.150;6.370;2023-02-28T11:55:23;9.07;;;4.70;;
52508;SDS011;38420;53.150;6.370;2023-02-28T12:11:45;5.97;;;3.42;;
52508;SDS011;38420;53.150;6.370;2023-02-28T12:14:19;7.70;;;3.63;;
52508;SDS011;38420;53.150;6.370;2023-02-28T12:20:05;6.55;;;3.70;;
52508;SDS011;38420;53.150;6.370;2023-02-28T12:28:37;6.53;;;4.03;;
52508;SDS011;38420;53.150;6.370;2023-02-28T12:33:59;4.47;;;3.28;;
52508;SDS011;38420;53.150;6.370;2023-02-28T12:36:29;7.25;;;3.85;;
52508;SDS011;38420;53.150;6.370;2023-02-28T12:39:03;5.28;;;3.75;;
52508;SDS011;38420;53.150;6.370;2023-02-28T12:41:41;4.55;;;3.03;;
52508;SDS011;38420;53.150;6.370;2023-02-28T12:44:15;5.57;;;4.15;;
52508;SDS011;38420;53.150;6.370;2023-02-28T12:46:49;7.07;;;3.65;;
52508;SDS011;38420;53.150;6.370;2023-02-28T12:49:27;6.18;;;3.78;;
52508;SDS011;38420;53.150;6.370;2023-02-28T12:51:58;6.35;;;3.88;;
52508;SDS011;38420;53.150;6.370;2023-02-28T12:54:29;5.35;;;3.60;;
52508;SDS011;38420;53.150;6.370;2023-02-28T12:57:24;6.40;;;4.05;;
52508;SDS011;38420;53.150;6.370;2023-02-28T13:00:17;8.85;;;4.07;;
52508;SDS011;38420;53.150;6.370;2023-02-28T13:03:04;9.13;;;4.22;;
52508;SDS011;38420;53.150;6.370;2023-02-28T13:11:22;8.75;;;3.65;;
52508;SDS011;38420;53.150;6.370;2023-02-28T13:13:49;7.15;;;4.35;;
52508;SDS011;38420;53.150;6.370;2023-02-28T13:16:23;8.93;;;3.83;;
52508;SDS011;38420;53.150;6.370;2023-02-28T13:18:49;8.68;;;4.18;;
52508;SDS011;38420;53.150;6.370;2023-02-28T13:21:30;6.43;;;4.57;;
52508;SDS011;38420;53.150;6.370;2023-02-28T13:29:43;7.25;;;4.47;;
52508;SDS011;38420;53.150;6.370;2023-02-28T13:34:34;5.70;;;4.40;;
52508;SDS011;38420;53.150;6.370;2023-02-28T13:39:54;6.30;;;4.20;;
52508;SDS011;38420;53.150;6.370;2023-02-28T13:47:42;6.43;;;4.40;;
52508;SDS011;38420;53.150;6.370;2023-02-28T13:52:52;7.25;;;4.38;;
52508;SDS011;38420;53.150;6.370;2023-02-28T13:58:18;5.97;;;4.40;;
52508;SDS011;38420;53.150;6.370;2023-02-28T14:03:52;8.20;;;4.80;;
52508;SDS011;38420;53.150;6.370;2023-02-28T14:09:02;5.85;;;4.63;;
52508;SDS011;38420;53.150;6.370;2023-02-28T14:11:33;6.13;;;4.32;;
52508;SDS011;38420;53.150;6.370;2023-02-28T14:14:02;7.82;;;5.15;;
52508;SDS011;38420;53.150;6.370;2023-02-28T14:16:43;8.88;;;5.05;;
52508;SDS011;38420;53.150;6.370;2023-02-28T14:19:12;9.15;;;5.95;;
52508;SDS011;38420;53.150;6.370;2023-02-28T14:24:37;6.78;;;4.53;;
52508;SDS011;38420;53.150;6.370;2023-02-28T14:27:49;8.48;;;5.00;;
52508;SDS011;38420;53.150;6.370;2023-02-28T14:36:11;9.48;;;5.30;;
52508;SDS011;38420;53.150;6.370;2023-02-28T14:38:58;7.85;;;5.00;;
52508;SDS011;38420;53.150;6.370;2023-02-28T14:41:45;11.48;;;5.45;;
52508;SDS011;38420;53.150;6.370;2023-02-28T14:44:16;8.48;;;5.32;;
52508;SDS011;38420;53.150;6.370;2023-02-28T14:46:43;8.10;;;5.57;;
52508;SDS011;38420;53.150;6.370;2023-02-28T14:49:15;10.10;;;5.72;;
52508;SDS011;38420;53.150;6.370;2023-02-28T14:51:47;9.20;;;5.10;;
52508;SDS011;38420;53.150;6.370;2023-02-28T14:54:15;9.50;;;5.75;;
52508;SDS011;38420;53.150;6.370;2023-02-28T14:56:49;12.13;;;5.53;;
52508;SDS011;38420;53.150;6.370;2023-02-28T14:59:22;8.73;;;5.68;;
52508;SDS011;38420;53.150;6.370;2023-02-28T15:05:13;8.75;;;5.05;;
52508;SDS011;38420;53.150;6.370;2023-02-28T15:07:41;9.10;;;5.43;;
52508;SDS011;38420;53.150;6.370;2023-02-28T15:12:36;10.10;;;5.47;;
52508;SDS011;38420;53.150;6.370;2023-02-28T15:15:04;8.82;;;6.03;;
52508;SDS011;38420;53.150;6.370;2023-02-28T15:17:32;10.15;;;6.00;;
52508;SDS011;38420;53.150;6.370;2023-02-28T15:19:59;12.63;;;6.55;;
52508;SDS011;38420;53.150;6.370;2023-02-28T15:22:31;10.77;;;6.43;;
52508;SDS011;38420;53.150;6.370;2023-02-28T15:25:01;13.27;;;5.68;;
52508;SDS011;38420;53.150;6.370;2023-02-28T15:27:31;11.27;;;6.45;;
52508;SDS011;38420;53.150;6.370;2023-02-28T15:30:05;10.30;;;6.63;;
52508;SDS011;38420;53.150;6.370;2023-02-28T15:32:34;15.93;;;6.57;;
52508;SDS011;38420;53.150;6.370;2023-02-28T15:37:54;10.55;;;5.95;;
52508;SDS011;38420;53.150;6.370;2023-02-28T15:42:59;9.95;;;6.38;;
52508;SDS011;38420;53.150;6.370;2023-02-28T15:45:46;10.15;;;6.13;;
52508;SDS011;38420;53.150;6.370;2023-02-28T15:48:20;10.07;;;6.50;;
52508;SDS011;38420;53.150;6.370;2023-02-28T15:50:54;8.00;;;5.93;;
52508;SDS011;38420;53.150;6.370;2023-02-28T15:55:54;8.60;;;5.95;;
52508;SDS011;38420;53.150;6.370;2023-02-28T15:58:23;8.55;;;5.53;;
52508;SDS011;38420;53.150;6.370;2023-02-28T16:01:16;7.38;;;5.07;;
52508;SDS011;38420;53.150;6.370;2023-02-28T16:03:49;7.68;;;5.13;;
52508;SDS011;38420;53.150;6.370;2023-02-28T16:08:58;9.18;;;5.80;;
52508;SDS011;38420;53.150;6.370;2023-02-28T16:11:23;8.40;;;5.82;;
52508;SDS011;38420;53.150;6.370;2023-02-28T16:13:49;11.63;;;9.02;;
52508;SDS011;38420;53.150;6.370;2023-02-28T16:16:20;9.23;;;6.97;;
52508;SDS011;38420;53.150;6.370;2023-02-28T16:18:47;9.90;;;6.78;;
52508;SDS011;38420;53.150;6.370;2023-02-28T16:21:13;13.27;;;7.07;;
52508;SDS011;38420;53.150;6.370;2023-02-28T16:23:39;11.93;;;8.18;;
52508;SDS011;38420;53.150;6.370;2023-02-28T16:26:04;9.68;;;6.63;;
52508;SDS011;38420;53.150;6.370;2023-02-28T16:28:32;9.85;;;6.80;;
52508;SDS011;38420;53.150;6.370;2023-02-28T16:31:01;9.65;;;6.72;;
52508;SDS011;38420;53.150;6.370;2023-02-28T16:33:29;10.20;;;6.88;;
52508;SDS011;38420;53.150;6.370;2023-02-28T16:35:55;11.10;;;6.55;;
52508;SDS011;38420;53.150;6.370;2023-02-28T16:38:21;11.38;;;7.35;;
52508;SDS011;38420;53.150;6.370;2023-02-28T16:40:48;10.65;;;6.95;;
52508;SDS011;38420;53.150;6.370;2023-02-28T16:43:15;11.05;;;6.93;;
52508;SDS011;38420;53.150;6.370;2023-02-28T16:45:44;10.35;;;6.55;;
52508;SDS011;38420;53.150;6.370;2023-02-28T16:48:14;11.20;;;6.97;;
52508;SDS011;38420;53.150;6.370;2023-02-28T16:50:41;11.10;;;6.90;;
52508;SDS011;38420;53.150;6.370;2023-02-28T16:53:09;11.50;;;7.28;;
52508;SDS011;38420;53.150;6.370;2023-02-28T16:55:35;7.82;;;6.88;;
52508;SDS011;38420;53.150;6.370;2023-02-28T16:58:01;10.48;;;7.03;;
52508;SDS011;38420;53.150;6.370;2023-02-28T17:00:28;13.00;;;8.00;;
52508;SDS011;38420;53.150;6.370;2023-02-28T17:02:56;12.50;;;7.45;;
52508;SDS011;38420;53.150;6.370;2023-02-28T17:05:22;8.93;;;6.70;;
52508;SDS011;38420;53.150;6.370;2023-02-28T17:07:48;9.07;;;7.25;;
52508;SDS011;38420;53.150;6.370;2023-02-28T17:10:15;11.88;;;7.50;;
52508;SDS011;38420;53.150;6.370;2023-02-28T17:12:46;11.02;;;7.80;;
52508;SDS011;38420;53.150;6.370;2023-02-28T17:15:12;10.48;;;7.55;;
52508;SDS011;38420;53.150;6.370;2023-02-28T17:17:40;10.73;;;7.50;;